Time;durP1;ratioP1;P1;durP2;ratioP2;P2;SDS_P1;SDS_P2;PMS_P1;PMS_P2;Temp;Humidity;BMP_temperature;BMP_pressure;BME280_temperature;BME280_humidity;BME280_pressure;Samples;Min_cycle;Max_cycle;Signal;HPM_P1;HPM_P2
2022/09/26 00:01:11;;;;;;;9.90;5.43;;;;;;;9.03;100.00;100501.88;5070183;28;20031;-71
2022/09/26 00:03:38;;;;;;;11.70;5.45;;;;;;;8.98;100.00;100495.09;5071902;28;20024;-70
2022/09/26 00:06:07;;;;;;;28.70;6.18;;;;;;;9.10;100.00;100492.13;5071305;28;20036;-70
2022/09/26 00:08:33;;;;;;;17.80;6.03;;;;;;;9.01;100.00;100488.53;5070532;28;20089;-71
2022/09/26 00:11:01;;;;;;;16.05;5.75;;;;;;;9.16;100.00;100480.69;5069948;28;20024;-71
2022/09/26 00:13:28;;;;;;;25.60;6.60;;;;;;;9.14;99.98;100471.91;5071330;28;20031;-70
2022/09/26 00:15:54;;;;;;;18.50;4.95;;;;;;;8.91;100.00;100467.03;5070712;28;20036;-70
2022/09/26 00:18:20;;;;;;;16.00;6.20;;;;;;;8.74;100.00;100459.81;5070056;28;20024;-70
2022/09/26 00:20:46;;;;;;;13.35;5.75;;;;;;;8.97;100.00;100461.00;5069915;28;20527;-70
2022/09/26 00:23:11;;;;;;;14.80;6.53;;;;;;;8.92;100.00;100457.91;5070021;28;20024;-71
2022/09/26 00:25:37;;;;;;;13.45;5.25;;;;;;;8.92;100.00;100449.81;5069764;28;20378;-71
2022/09/26 00:28:02;;;;;;;13.88;5.72;;;;;;;8.96;100.00;100448.50;5071190;28;20039;-71
2022/09/26 00:30:27;;;;;;;13.43;4.75;;;;;;;8.90;100.00;100448.28;5070993;28;20033;-70
2022/09/26 00:32:53;;;;;;;20.00;4.90;;;;;;;8.93;100.00;100445.25;5070023;28;20029;-70
2022/09/26 00:35:18;;;;;;;12.75;4.60;;;;;;;8.89;100.00;100447.44;5070566;28;20021;-71
2022/09/26 00:37:44;;;;;;;16.23;4.95;;;;;;;8.84;100.00;100438.13;5070214;28;20419;-71
2022/09/26 00:40:10;;;;;;;10.90;4.53;;;;;;;9.00;100.00;100437.38;5071173;28;20020;-71
2022/09/26 00:42:36;;;;;;;9.48;4.22;;;;;;;8.85;100.00;100434.41;5071277;28;20111;-71
2022/09/26 00:45:01;;;;;;;10.77;5.03;;;;;;;8.90;100.00;100437.50;5070945;28;20092;-70
2022/09/26 00:47:40;;;;;;;10.70;5.07;;;;;;;8.90;100.00;100427.53;5069709;28;20020;-71
2022/09/26 00:50:33;;;;;;;14.50;4.93;;;;;;;8.89;100.00;100419.59;5069332;28;20021;-71
2022/09/26 00:53:04;;;;;;;13.95;4.97;;;;;;;8.94;100.00;100418.13;5062913;28;20078;-71
2022/09/26 00:55:35;;;;;;;16.57;5.27;;;;;;;8.87;100.00;100417.06;5069430;28;20024;-71
2022/09/26 00:58:08;;;;;;;16.65;5.15;;;;;;;8.90;100.00;100411.34;5052711;28;20024;-70
2022/09/26 01:00:34;;;;;;;17.63;5.82;;;;;;;8.83;100.00;100410.28;5070444;28;20021;-69
2022/09/26 01:03:00;;;;;;;12.52;5.13;;;;;;;8.82;100.00;100402.34;5070071;28;20107;-71
2022/09/26 01:05:25;;;;;;;19.60;5.22;;;;;;;8.63;100.00;100403.38;5070050;28;20024;-70
2022/09/26 01:07:53;;;;;;;14.73;5.78;;;;;;;8.71;100.00;100395.34;5070794;28;20177;-70
2022/09/26 01:10:19;;;;;;;12.75;5.63;;;;;;;8.78;100.00;100396.41;5068864;28;20036;-71
2022/09/26 01:12:45;;;;;;;14.25;4.88;;;;;;;8.60;100.00;100393.75;5052482;28;20028;-71
2022/09/26 01:15:10;;;;;;;9.63;5.53;;;;;;;8.59;100.00;100391.19;5068709;28;20016;-71
2022/09/26 01:17:39;;;;;;;24.70;7.07;;;;;;;8.69;100.00;100375.78;5052182;28;20035;-71
2022/09/26 01:20:19;;;;;;;28.20;5.25;;;;;;;8.76;100.00;100376.81;5068749;28;20028;-71
2022/09/26 01:23:04;;;;;;;22.60;5.85;;;;;;;8.82;100.00;100376.19;5052579;28;20078;-71
2022/09/26 01:26:08;;;;;;;25.45;6.32;;;;;;;8.90;100.00;100364.59;5052265;28;20022;-71
2022/09/26 01:28:48;;;;;;;26.27;6.22;;;;;;;8.82;100.00;100369.97;5052065;28;20017;-70
2022/09/26 01:31:40;;;;;;;15.73;4.50;;;;;;;8.96;99.93;100364.81;5069936;28;20411;-72
2022/09/26 01:34:18;;;;;;;14.60;6.72;;;;;;;8.96;99.30;100361.25;5068767;28;20021;-71
2022/09/26 01:37:05;;;;;;;20.50;5.28;;;;;;;9.09;98.91;100355.41;5068719;28;20084;-71
2022/09/26 01:39:41;;;;;;;16.00;5.95;;;;;;;9.22;98.59;100358.53;5051897;28;20115;-72
2022/09/26 01:42:35;;;;;;;21.45;6.40;;;;;;;9.04;98.58;100353.19;5068828;28;20043;-71
2022/09/26 01:45:10;;;;;;;14.70;5.82;;;;;;;9.01;99.04;100353.53;5068824;28;20047;-71
2022/09/26 01:47:44;;;;;;;22.23;5.30;;;;;;;9.02;98.73;100348.97;5070627;28;20025;-72
2022/09/26 01:50:22;;;;;;;19.08;5.43;;;;;;;8.98;100.00;100346.56;5052095;28;20084;-72
2022/09/26 01:52:54;;;;;;;21.77;6.72;;;;;;;8.93;99.99;100340.84;5051923;28;20102;-71
2022/09/26 01:55:22;;;;;;;;;;;;;;;8.91;100.00;100348.22;5052040;28;20024;-71
2022/09/26 01:58:11;;;;;;;18.10;5.75;;;;;;;8.85;100.00;100338.06;5051845;28;20344;-71
2022/09/26 02:00:41;;;;;;;23.38;5.97;;;;;;;8.72;100.00;100332.25;5051458;28;20115;-72
2022/09/26 02:03:12;;;;;;;24.65;6.55;;;;;;;8.71;100.00;100346.75;5068480;28;20028;-71
2022/09/26 02:05:46;;;;;;;13.63;6.10;;;;;;;8.68;100.00;100336.31;5067908;28;20025;-72
2022/09/26 02:08:15;;;;;;;14.20;5.32;;;;;;;8.73;100.00;100323.16;5071324;28;20036;-71
2022/09/26 02:10:48;;;;;;;25.92;5.97;;;;;;;8.62;100.00;100326.13;5071304;28;20028;-71
2022/09/26 02:13:20;;;;;;;29.85;6.82;;;;;;;8.68;100.00;100323.66;5089833;28;20028;-72
2022/09/26 02:15:51;;;;;;;20.92;7.38;;;;;;;8.70;100.00;100312.69;5089527;28;20024;-71
2022/09/26 02:18:27;;;;;;;17.60;6.05;;;;;;;8.63;100.00;100312.47;5090381;28;20035;-72
2022/09/26 02:21:01;;;;;;;19.75;7.10;;;;;;;8.65;100.00;100304.22;5071728;28;20096;-71
2022/09/26 02:23:26;;;;;;;17.45;6.20;;;;;;;8.62;100.00;100304.56;5072126;28;20032;-71
2022/09/26 02:25:52;;;;;;;23.40;7.90;;;;;;;8.62;100.00;100294.59;5089292;28;20080;-71
2022/09/26 02:28:18;;;;;;;17.35;6.13;;;;;;;8.69;100.00;100294.81;5071502;28;20110;-72
2022/09/26 02:30:46;;;;;;;17.38;5.50;;;;;;;8.88;100.00;100289.16;5124569;22;20049;-74
2022/09/26 02:33:12;;;;;;;15.52;6.22;;;;;;;8.85;100.00;100288.63;5052849;28;20032;-74
2022/09/26 02:35:53;;;;;;;17.77;6.00;;;;;;;9.00;100.00;100278.94;5047977;28;20025;-74
2022/09/26 02:38:19;;;;;;;18.33;6.20;;;;;;;9.01;100.00;100277.09;5037360;28;20493;-74
2022/09/26 02:41:04;;;;;;;19.15;7.60;;;;;;;9.00;100.00;100269.97;5048946;28;20108;-74
2022/09/26 02:43:55;;;;;;;17.63;6.13;;;;;;;8.98;100.00;100268.28;5048054;28;20021;-74
2022/09/26 02:47:02;;;;;;;27.23;7.37;;;;;;;9.06;100.00;100270.16;5041437;28;20017;-74
2022/09/26 02:49:31;;;;;;;16.75;5.95;;;;;;;9.05;100.00;100256.81;5046051;28;20067;-74
2022/09/26 02:52:08;;;;;;;12.27;6.25;;;;;;;8.81;100.00;100249.50;5047996;28;20029;-74
2022/09/26 02:54:46;;;;;;;23.35;6.90;;;;;;;8.78;100.00;100245.25;5048220;28;20025;-73
2022/09/26 02:57:44;;;;;;;17.60;6.90;;;;;;;8.90;100.00;100243.09;5046544;28;20067;-73
2022/09/26 03:00:21;;;;;;;11.05;5.70;;;;;;;8.99;100.00;100236.72;5050492;28;20119;-74
2022/09/26 03:02:52;;;;;;;17.67;6.22;;;;;;;9.13;100.00;100237.97;5051647;28;20056;-74
2022/09/26 03:05:23;;;;;;;21.77;7.10;;;;;;;9.07;100.00;100227.81;5055191;28;20021;-74
2022/09/26 03:08:10;;;;;;;16.13;5.90;;;;;;;9.12;100.00;100220.06;5055455;28;20021;-74
2022/09/26 03:10:36;;;;;;;16.92;6.38;;;;;;;8.98;100.00;100222.38;5056893;28;20020;-74
2022/09/26 03:13:07;;;;;;;19.50;6.10;;;;;;;8.88;100.00;100216.28;5054639;28;20112;-74
2022/09/26 03:15:35;;;;;;;12.07;5.55;;;;;;;9.09;100.00;100215.00;5053243;28;20024;-74
2022/09/26 03:18:05;;;;;;;12.75;5.82;;;;;;;9.07;100.00;100211.63;5053429;28;20029;-74
2022/09/26 03:20:31;;;;;;;15.45;5.65;;;;;;;9.05;100.00;100219.03;5053296;28;20013;-74
2022/09/26 03:22:56;;;;;;;12.45;6.05;;;;;;;9.11;100.00;100207.56;5053290;28;20523;-74
2022/09/26 03:25:24;;;;;;;21.67;6.57;;;;;;;9.04;100.00;100211.94;5057472;28;20020;-74
2022/09/26 03:27:52;;;;;;;18.60;5.88;;;;;;;9.10;100.00;100201.31;5053075;28;20025;-74
2022/09/26 03:30:20;;;;;;;11.65;4.95;;;;;;;9.05;100.00;100192.03;5045594;28;20432;-74
2022/09/26 03:32:46;;;;;;;21.50;5.70;;;;;;;9.14;100.00;100196.44;5054922;28;20041;-74
2022/09/26 03:35:12;;;;;;;16.98;5.38;;;;;;;9.27;100.00;100188.72;5052951;28;20104;-74
2022/09/26 03:37:38;;;;;;;22.50;6.03;;;;;;;9.37;100.00;100186.69;5054463;28;20116;-74
2022/09/26 03:40:07;;;;;;;21.15;5.32;;;;;;;9.20;100.00;100179.59;5054797;28;20086;-74
2022/09/26 03:42:33;;;;;;;13.60;5.10;;;;;;;9.32;100.00;100175.53;5057240;28;20017;-75
2022/09/26 03:44:59;;;;;;;16.08;5.70;;;;;;;9.31;100.00;100176.53;5051329;28;20025;-74
2022/09/26 03:47:25;;;;;;;16.08;5.18;;;;;;;9.32;100.00;100162.00;5053004;28;20017;-75
2022/09/26 03:49:51;;;;;;;16.35;4.90;;;;;;;9.31;100.00;100165.72;5053149;28;20094;-75
2022/09/26 03:52:17;;;;;;;18.55;5.30;;;;;;;9.22;100.00;100159.47;5052824;28;20020;-75
2022/09/26 03:54:42;;;;;;;16.17;5.55;;;;;;;9.30;100.00;100161.34;5053764;28;20017;-74
2022/09/26 03:57:11;;;;;;;19.15;6.00;;;;;;;9.29;100.00;100154.25;5052093;28;20096;-74
2022/09/26 03:59:36;;;;;;;26.27;6.68;;;;;;;9.32;100.00;100151.22;5052649;28;20021;-74
2022/09/26 04:02:02;;;;;;;15.07;5.13;;;;;;;9.31;100.00;100141.41;5050634;28;20029;-74
2022/09/26 04:04:28;;;;;;;20.23;6.45;;;;;;;9.27;100.00;100137.38;5052333;28;20112;-74
2022/09/26 04:06:53;;;;;;;16.88;5.63;;;;;;;9.17;100.00;100131.28;5049187;28;20102;-75
2022/09/26 04:09:19;;;;;;;19.35;6.05;;;;;;;9.18;100.00;100127.56;5052161;28;20063;-74
2022/09/26 04:11:45;;;;;;;16.10;6.95;;;;;;;9.00;100.00;100124.16;5050505;28;20032;-75
2022/09/26 04:14:10;;;;;;;18.55;5.40;;;;;;;9.03;100.00;100123.84;5051831;28;20033;-74
2022/09/26 04:16:37;;;;;;;18.85;6.25;;;;;;;9.17;100.00;100115.06;5052139;28;20013;-74
2022/09/26 04:19:03;;;;;;;15.75;5.70;;;;;;;9.14;100.00;100116.28;5052289;28;20029;-74
2022/09/26 04:21:28;;;;;;;17.63;5.22;;;;;;;9.15;100.00;100117.13;5052109;28;20079;-75
2022/09/26 04:23:54;;;;;;;12.73;6.07;;;;;;;9.21;100.00;100102.94;5052057;28;20039;-75
2022/09/26 04:26:22;;;;;;;9.55;5.72;;;;;;;9.18;100.00;100112.19;5051875;28;20071;-74
2022/09/26 04:28:50;;;;;;;21.23;5.60;;;;;;;9.19;100.00;100097.72;5051562;28;20021;-74
2022/09/26 04:31:16;;;;;;;15.98;5.43;;;;;;;9.25;100.00;100096.16;5051666;28;20028;-75
2022/09/26 04:33:41;;;;;;;16.08;6.68;;;;;;;9.23;100.00;100092.81;5051689;28;20021;-75
2022/09/26 04:36:12;;;;;;;13.23;4.82;;;;;;;9.29;100.00;100092.13;5051717;28;20029;-75
2022/09/26 04:38:38;;;;;;;9.00;4.85;;;;;;;9.24;100.00;100094.50;5054533;28;20381;-75
2022/09/26 04:41:07;;;;;;;15.60;5.40;;;;;;;9.29;100.00;100086.72;5052344;28;20096;-74
2022/09/26 04:43:33;;;;;;;12.38;5.38;;;;;;;9.22;100.00;100074.91;5052071;28;20024;-75
2022/09/26 04:45:59;;;;;;;15.82;5.88;;;;;;;9.27;100.00;100077.97;5051472;28;20100;-75
2022/09/26 04:48:24;;;;;;;26.30;6.38;;;;;;;9.25;100.00;100069.16;5051241;28;20044;-75
2022/09/26 04:50:50;;;;;;;22.90;6.45;;;;;;;9.28;100.00;100071.53;5051097;28;20062;-75
2022/09/26 04:53:16;;;;;;;18.90;6.97;;;;;;;9.30;100.00;100077.59;5051300;28;20024;-75
2022/09/26 04:55:46;;;;;;;21.08;5.47;;;;;;;9.25;100.00;100069.16;5050998;28;20025;-74
2022/09/26 04:58:12;;;;;;;16.33;5.93;;;;;;;9.21;100.00;100065.13;5050986;28;20071;-74
2022/09/26 05:00:46;;;;;;;16.48;5.55;;;;;;;9.26;100.00;100062.78;5051550;28;20075;-74
2022/09/26 05:03:13;;;;;;;15.98;5.40;;;;;;;9.24;100.00;100062.91;5051157;28;20016;-75
2022/09/26 05:05:46;;;;;;;18.10;5.40;;;;;;;9.31;100.00;100060.38;5050928;28;20024;-74
2022/09/26 05:08:13;;;;;;;16.40;5.97;;;;;;;9.32;100.00;100058.53;5051021;28;20447;-74
2022/09/26 05:10:39;;;;;;;10.90;4.82;;;;;;;9.31;100.00;100052.28;5050822;28;20078;-75
2022/09/26 05:13:06;;;;;;;14.30;4.75;;;;;;;9.34;100.00;100057.34;5050963;28;20029;-75
2022/09/26 05:15:38;;;;;;;11.63;5.07;;;;;;;9.37;100.00;100054.28;5050231;28;20487;-76
2022/09/26 05:18:06;;;;;;;;;;;;;;;9.50;100.00;100041.09;5051090;28;20469;-74
2022/09/26 05:20:33;;;;;;;21.38;5.35;;;;;;;9.50;100.00;100043.81;5050160;28;19934;-74
2022/09/26 05:22:58;;;;;;;16.33;4.88;;;;;;;9.46;100.00;100045.19;5050688;28;20032;-75
2022/09/26 05:28:09;;;;;;;12.27;5.05;;;;;;;9.55;100.00;100042.47;5051716;28;20025;-74
2022/09/26 05:30:35;;;;;;;19.20;4.80;;;;;;;9.67;100.00;100030.28;5051638;28;20029;-74
2022/09/26 05:33:00;;;;;;;13.32;4.90;;;;;;;9.92;100.00;100034.59;5050335;28;20033;-74
2022/09/26 05:35:26;;;;;;;10.55;4.72;;;;;;;10.00;99.54;100037.25;5051594;28;20029;-75
2022/09/26 05:37:59;;;;;;;16.00;5.18;;;;;;;9.95;99.77;100028.81;5050863;28;20099;-74
2022/09/26 05:43:09;;;;;;;11.70;4.10;;;;;;;9.92;99.58;100034.59;5050668;28;20048;-74
2022/09/26 05:45:35;;;;;;;10.02;4.18;;;;;;;9.88;99.07;100033.25;5049993;28;20033;-75
2022/09/26 05:48:00;;;;;;;17.75;4.18;;;;;;;10.02;98.46;100029.81;5050421;28;20033;-74
2022/09/26 05:50:26;;;;;;;11.80;4.32;;;;;;;10.12;98.31;100028.75;5051892;28;20120;-75
2022/09/26 05:52:56;;;;;;;18.77;4.32;;;;;;;10.13;97.50;100030.44;5050678;28;20056;-75
2022/09/26 05:55:21;;;;;;;12.48;4.15;;;;;;;10.22;97.65;100027.50;5050205;28;20032;-75
2022/09/26 05:57:51;;;;;;;11.10;3.60;;;;;;;10.28;97.42;100017.88;5049599;28;20017;-75
2022/09/26 06:00:17;;;;;;;8.98;3.63;;;;;;;10.19;97.04;100013.50;5048167;28;20025;-75
2022/09/26 06:02:42;;;;;;;12.90;4.07;;;;;;;10.22;98.08;100013.16;5049857;28;20111;-75
2022/09/26 06:05:08;;;;;;;11.55;3.55;;;;;;;10.21;97.10;100016.88;5049582;28;20051;-73
2022/09/26 06:07:33;;;;;;;11.30;4.18;;;;;;;10.29;96.95;100014.16;5049413;28;20088;-74
2022/09/26 06:09:58;;;;;;;14.73;3.13;;;;;;;10.34;97.02;100017.19;5049618;28;20085;-74
2022/09/26 06:12:27;;;;;;;19.42;3.97;;;;;;;10.30;96.61;100016.69;5049413;28;20149;-74
2022/09/26 06:14:52;;;;;;;8.43;3.20;;;;;;;10.41;96.97;100023.56;5046662;28;20021;-74
2022/09/26 06:17:18;;;;;;;10.02;3.83;;;;;;;10.32;97.10;100003.00;5048972;28;20024;-74
2022/09/26 06:19:44;;;;;;;9.07;3.83;;;;;;;10.39;96.31;100003.97;5050160;28;20055;-74
2022/09/26 06:22:09;;;;;;;13.57;3.85;;;;;;;10.42;96.14;99992.75;5050185;28;20028;-75
2022/09/26 06:24:35;;;;;;;14.13;3.35;;;;;;;10.51;96.03;99997.13;5050063;28;20045;-75
2022/09/26 06:27:00;;;;;;;9.77;3.28;;;;;;;10.54;95.85;99991.34;5049490;28;20107;-74
2022/09/26 06:29:26;;;;;;;11.25;4.13;;;;;;;10.67;95.30;99981.78;5050217;28;20027;-71
2022/09/26 06:31:51;;;;;;;9.63;3.50;;;;;;;10.77;95.23;99974.28;5050150;28;20035;-71
2022/09/26 06:34:16;;;;;;;9.23;3.53;;;;;;;10.70;95.06;99978.72;5048975;28;20017;-71
2022/09/26 06:36:42;;;;;;;11.55;3.58;;;;;;;10.75;94.20;99984.41;5049870;28;20013;-71
2022/09/26 06:39:08;;;;;;;12.68;3.83;;;;;;;10.80;93.44;99979.31;5052077;28;20045;-71
2022/09/26 06:41:34;;;;;;;11.02;3.67;;;;;;;10.75;93.36;99965.47;5048984;28;20056;-72
2022/09/26 06:44:01;;;;;;;6.55;3.28;;;;;;;10.97;92.63;99975.44;5048559;28;20071;-71
2022/09/26 06:46:30;;;;;;;15.45;4.50;;;;;;;11.00;92.44;99969.66;5049129;28;20009;-71
2022/09/26 06:48:56;;;;;;;7.95;3.08;;;;;;;11.09;92.50;99971.28;5049315;28;20020;-72
2022/09/26 06:51:22;;;;;;;10.40;3.00;;;;;;;10.95;92.68;99972.06;5048952;28;20090;-71
2022/09/26 06:53:47;;;;;;;7.68;2.92;;;;;;;10.92;92.36;99966.19;5049642;28;20408;-68
2022/09/26 06:56:12;;;;;;;15.52;4.05;;;;;;;10.91;92.46;99978.88;5038603;28;20049;-68
2022/09/26 06:58:38;;;;;;;13.20;3.55;;;;;;;10.91;92.18;99961.78;5042470;28;20025;-68
2022/09/26 07:01:05;;;;;;;10.23;3.55;;;;;;;11.07;91.91;99965.19;5045473;28;20485;-71
2022/09/26 07:03:31;;;;;;;10.70;3.80;;;;;;;11.13;92.59;99963.59;5041018;28;20033;-71
2022/09/26 07:05:57;;;;;;;11.10;3.80;;;;;;;11.08;92.62;99971.44;5044143;28;20024;-70
2022/09/26 07:08:24;;;;;;;11.73;3.08;;;;;;;11.12;92.16;99961.94;5045275;28;20013;-71
2022/09/26 07:10:49;;;;;;;12.93;3.58;;;;;;;11.40;91.27;99959.44;5041958;28;20032;-70
2022/09/26 07:13:15;;;;;;;12.15;4.10;;;;;;;11.23;91.52;99957.94;5044451;28;20032;-70
2022/09/26 07:15:44;;;;;;;10.38;3.67;;;;;;;11.27;91.49;99964.66;5044751;28;20017;-70
2022/09/26 07:18:09;;;;;;;6.10;3.13;;;;;;;11.22;91.94;99961.69;5045094;28;20040;-69
2022/09/26 07:20:39;;;;;;;6.07;3.55;;;;;;;11.26;91.95;99960.25;5046222;28;20025;-70
2022/09/26 07:23:09;;;;;;;10.32;4.00;;;;;;;11.13;92.49;99942.78;5044694;28;20017;-71
2022/09/26 07:25:37;;;;;;;15.88;3.75;;;;;;;11.08;92.42;99950.63;5045673;28;20024;-71
2022/09/26 07:28:03;;;;;;;12.82;3.90;;;;;;;11.06;93.09;99939.13;5046232;28;20021;-73
2022/09/26 07:30:28;;;;;;;11.05;3.30;;;;;;;11.38;92.66;99939.81;5045364;28;20025;-71
2022/09/26 07:33:04;;;;;;;11.35;3.65;;;;;;;11.16;93.94;99940.75;5043766;28;20057;-68
2022/09/26 07:35:31;;;;;;;9.93;3.40;;;;;;;11.19;93.99;99935.78;5044831;28;20025;-69
2022/09/26 07:37:57;;;;;;;14.48;3.53;;;;;;;11.23;93.72;99936.25;5045239;28;20017;-72
2022/09/26 07:40:24;;;;;;;15.00;3.22;;;;;;;11.08;94.15;99934.38;5045291;28;20116;-71
2022/09/26 07:42:50;;;;;;;8.90;2.70;;;;;;;11.13;94.00;99937.34;5046077;28;20021;-68
2022/09/26 07:45:16;;;;;;;11.52;3.30;;;;;;;10.93;94.66;99921.81;5046634;28;20037;-70
2022/09/26 07:50:26;;;;;;;7.85;3.80;;;;;;;10.96;94.93;99930.44;5043942;28;20185;-69
2022/09/26 07:52:51;;;;;;;17.25;4.10;;;;;;;10.93;95.43;99930.78;5048350;28;20107;-70
2022/09/26 07:55:20;;;;;;;13.60;3.85;;;;;;;10.99;95.25;99919.22;5049529;28;20112;-72
2022/09/26 07:57:47;;;;;;;11.82;4.70;;;;;;;11.02;95.24;99924.28;5048931;28;20017;-72
2022/09/26 08:00:15;;;;;;;18.25;4.32;;;;;;;11.02;95.17;99923.41;5050003;28;20420;-71
2022/09/26 08:02:44;;;;;;;10.88;4.35;;;;;;;11.07;95.09;99921.84;5048797;28;20020;-72
2022/09/26 08:05:16;;;;;;;8.90;4.20;;;;;;;11.34;94.04;99916.81;5048094;28;20021;-72
2022/09/26 08:07:43;;;;;;;9.07;4.35;;;;;;;11.39;94.41;99925.22;5048155;28;20102;-71
2022/09/26 08:10:18;;;;;;;14.40;4.53;;;;;;;11.53;94.25;99921.66;5049309;28;20033;-71
2022/09/26 08:12:43;;;;;;;12.70;4.53;;;;;;;11.73;92.83;99921.09;5048468;28;20044;-72
2022/09/26 08:15:09;;;;;;;16.08;5.13;;;;;;;11.56;94.43;99921.31;5048558;28;20052;-69
2022/09/26 08:17:35;;;;;;;19.02;5.18;;;;;;;11.42;93.54;99919.44;5031255;28;20194;-72
2022/09/26 08:20:00;;;;;;;21.67;5.15;;;;;;;11.58;92.63;99913.81;5047611;28;20495;-72
2022/09/26 08:22:27;;;;;;;21.25;5.38;;;;;;;11.47;92.90;99906.16;5048380;28;20545;-70
2022/09/26 08:24:54;;;;;;;9.75;5.22;;;;;;;11.68;92.73;99908.97;5047185;28;20066;-71
2022/09/26 08:27:21;;;;;;;12.00;5.05;;;;;;;11.77;92.32;99906.13;5047468;28;20024;-69
2022/09/26 08:29:48;;;;;;;13.55;5.40;;;;;;;11.59;91.82;99892.97;5048279;28;20009;-72
2022/09/26 08:32:33;;;;;;;15.63;7.60;;;;;;;11.52;92.60;99898.31;5123142;23;20040;-67
2022/09/26 08:34:59;;;;;;;13.75;6.18;;;;;;;11.67;92.37;99901.88;5054655;28;20047;-68
2022/09/26 08:37:26;;;;;;;20.65;6.68;;;;;;;11.69;91.55;99910.63;5053397;28;20021;-68
2022/09/26 08:39:52;;;;;;;11.32;6.10;;;;;;;11.98;90.36;99902.66;5059326;28;20063;-68
2022/09/26 08:42:33;;;;;;;11.23;5.88;;;;;;;11.81;91.90;99904.78;5042645;28;20032;-67
2022/09/26 08:48:42;;;;;;;17.70;6.85;;;;;;;11.97;91.77;99901.81;5058440;28;20016;-67
2022/09/26 08:51:39;;;;;;;13.57;6.82;;;;;;;11.98;91.34;99889.94;5055759;22;20428;-67
2022/09/26 08:54:11;;;;;;;14.70;6.13;;;;;;;12.21;90.64;99890.63;5072368;28;20055;-67
2022/09/26 08:56:47;;;;;;;13.68;6.10;;;;;;;12.54;89.22;99895.53;5060805;28;20074;-67
2022/09/26 08:59:39;;;;;;;13.32;5.88;;;;;;;12.57;89.36;99876.13;5069881;28;20024;-67
2022/09/26 09:02:17;;;;;;;17.55;6.60;;;;;;;12.44;89.10;99892.28;5047081;28;20041;-68
2022/09/26 09:04:56;;;;;;;17.50;5.80;;;;;;;12.64;87.83;99887.88;5055815;28;20028;-68
2022/09/26 09:07:24;;;;;;;16.88;5.65;;;;;;;12.44;88.42;99876.84;5055024;28;20474;-68
2022/09/26 09:09:53;;;;;;;13.77;5.63;;;;;;;12.81;87.09;99874.03;5052857;28;20016;-67
2022/09/26 09:12:38;;;;;;;17.17;6.90;;;;;;;12.84;86.89;99865.47;5065028;28;20031;-66
2022/09/26 09:15:29;;;;;;;14.63;5.75;;;;;;;12.84;86.50;99871.75;5059998;28;20028;-67
2022/09/26 09:18:08;;;;;;;8.68;5.57;;;;;;;12.83;85.48;99859.19;5055364;28;20028;-68
2022/09/26 09:31:37;;;;;;;15.25;6.30;;;;;;;12.77;86.72;99855.38;5087203;28;20052;-68
2022/09/26 09:34:08;;;;;;;13.35;6.10;;;;;;;12.70;86.31;99853.66;5086712;28;20150;-68
2022/09/26 09:36:53;;;;;;;17.10;6.82;;;;;;;12.87;85.10;99859.66;5080473;28;20020;-68
2022/09/26 09:39:41;;;;;;;13.95;5.72;;;;;;;12.86;85.35;99857.97;5085982;28;20144;-68
2022/09/26 09:42:18;;;;;;;15.23;5.97;;;;;;;12.53;85.89;99858.56;5082602;28;20024;-68
2022/09/26 09:44:56;;;;;;;22.42;6.97;;;;;;;12.43;85.59;99847.19;5090051;28;20077;-67
2022/09/26 09:47:28;;;;;;;11.65;4.78;;;;;;;12.52;84.60;99856.00;5077612;28;20052;-70
2022/09/26 09:49:56;;;;;;;11.90;5.00;;;;;;;12.72;83.08;99846.19;5079117;28;20021;-67
2022/09/26 09:52:46;;;;;;;13.65;5.05;;;;;;;12.67;84.72;99844.03;5081043;28;20028;-68
2022/09/26 09:55:38;;;;;;;12.77;5.57;;;;;;;12.59;84.77;99851.50;5077764;28;20128;-68
2022/09/26 09:58:13;;;;;;;;;;;;;;;12.52;84.76;99835.16;5081124;28;20052;-68
2022/09/26 10:00:52;;;;;;;13.73;4.75;;;;;;;12.72;85.70;99836.16;5080980;28;19904;-68
2022/09/26 10:03:31;;;;;;;15.20;5.28;;;;;;;12.70;84.32;99838.22;5077841;28;20023;-68
2022/09/26 10:06:00;;;;;;;12.20;4.53;;;;;;;12.72;84.63;99836.16;5083014;28;20050;-70
2022/09/26 10:08:31;;;;;;;13.80;4.50;;;;;;;12.83;84.11;99836.63;5086469;28;20084;-67
2022/09/26 10:11:18;;;;;;;;;;;;;;;13.03;83.63;99843.03;5084251;28;20127;-68
2022/09/26 10:13:44;;;;;;;15.68;4.45;;;;;;;12.84;82.04;99824.72;5076429;28;20457;-67
2022/09/26 10:16:13;;;;;;;16.30;4.07;;;;;;;12.96;82.14;99831.28;5081225;28;20110;-68
2022/09/26 10:19:03;;;;;;;9.68;3.88;;;;;;;13.13;80.86;99827.22;5085274;28;20024;-68
2022/09/26 10:21:38;;;;;;;19.33;3.90;;;;;;;13.15;80.64;99814.25;5065022;28;20019;-68
2022/09/26 10:24:05;;;;;;;8.35;3.58;;;;;;;13.13;80.04;99819.06;5081051;28;20031;-68
2022/09/26 10:26:38;;;;;;;11.00;3.85;;;;;;;13.17;79.96;99806.75;5088014;28;20107;-68
2022/09/26 10:29:23;;;;;;;12.07;3.72;;;;;;;13.26;79.89;99807.47;5086098;28;20039;-69
2022/09/26 10:32:00;;;;;;;9.05;3.30;;;;;;;13.32;77.64;99798.50;5083984;28;20028;-68
2022/09/26 10:34:31;;;;;;;16.33;3.63;;;;;;;13.38;78.82;99794.13;5081694;28;20114;-69
2022/09/26 10:37:16;;;;;;;;;;;;;;;13.40;77.61;99794.75;5077018;28;20394;-69
2022/09/26 10:42:37;;;;;;;9.82;3.30;;;;;;;13.68;77.87;99787.31;5061500;28;20028;-68
2022/09/26 10:45:19;;;;;;;10.55;3.58;;;;;;;13.75;76.20;99792.78;5072833;28;20482;-68
2022/09/26 10:47:50;;;;;;;6.82;2.78;;;;;;;13.87;76.51;99780.25;5075161;28;20079;-67
2022/09/26 10:50:29;;;;;;;5.38;3.00;;;;;;;13.52;76.83;99782.25;5081445;28;20024;-67
2022/09/26 10:53:09;;;;;;;10.73;3.13;;;;;;;13.25;78.04;99760.41;5079867;28;20036;-68
2022/09/26 10:55:41;;;;;;;8.32;3.05;;;;;;;13.50;79.44;99784.34;5078671;28;20030;-68
2022/09/26 10:58:16;;;;;;;7.47;3.03;;;;;;;13.45;77.63;99781.41;5075353;28;20036;-68
2022/09/26 11:00:45;;;;;;;13.38;3.25;;;;;;;13.43;78.84;99778.03;5078522;28;20031;-67
2022/09/26 11:03:19;;;;;;;16.58;3.42;;;;;;;13.52;78.34;99771.38;5087396;28;20032;-67
2022/09/26 11:05:55;;;;;;;12.35;3.17;;;;;;;13.74;78.36;99762.00;5085244;28;20126;-68
2022/09/26 11:08:26;;;;;;;12.25;3.00;;;;;;;13.51;76.19;99753.41;5081449;28;20016;-68
2022/09/26 11:10:53;;;;;;;10.52;3.00;;;;;;;13.57;78.02;99752.56;5075085;28;20036;-68
2022/09/26 11:13:24;;;;;;;14.20;4.10;;;;;;;13.27;77.15;99763.75;5083534;28;20020;-68
2022/09/26 11:16:00;;;;;;;8.32;3.15;;;;;;;13.30;78.43;99762.50;5077179;28;20012;-68
2022/09/26 11:18:56;;;;;;;7.00;2.90;;;;;;;13.27;78.45;99747.44;5082980;28;20056;-68
2022/09/26 11:21:51;;;;;;;9.48;3.22;;;;;;;13.04;77.92;99753.19;5083720;28;20044;-68
2022/09/26 11:24:50;;;;;;;10.82;3.47;;;;;;;12.99;79.25;99749.38;5084407;28;20043;-67
2022/09/26 11:27:32;;;;;;;8.93;3.15;;;;;;;13.11;80.01;99741.50;5084881;28;20047;-67
2022/09/26 11:30:08;;;;;;;14.32;2.50;;;;;;;13.37;79.22;99740.81;5084094;28;20172;-68
2022/09/26 11:32:44;;;;;;;8.27;3.30;;;;;;;12.91;82.59;99730.50;5084424;28;20025;-68
2022/09/26 11:35:17;;;;;;;9.80;3.42;;;;;;;12.85;81.45;99739.50;5068211;28;20024;-69
2022/09/26 11:38:04;;;;;;;12.30;3.17;;;;;;;12.75;83.13;99735.25;5088103;28;20020;-67
2022/09/26 11:40:51;;;;;;;7.28;3.03;;;;;;;12.75;84.73;99732.53;5082458;28;20038;-68
2022/09/26 11:43:29;;;;;;;9.07;3.05;;;;;;;12.75;86.56;99732.53;5082077;28;20040;-68
2022/09/26 11:46:19;;;;;;;8.40;3.03;;;;;;;12.50;85.91;99734.88;5088944;28;20035;-69
2022/09/26 11:49:04;;;;;;;12.75;3.72;;;;;;;12.45;87.08;99731.06;5082707;28;20020;-67
2022/09/26 11:51:40;;;;;;;10.80;3.67;;;;;;;12.46;86.89;99727.34;5131997;22;20119;-67
2022/09/26 11:54:12;;;;;;;12.35;4.15;;;;;;;12.18;88.15;99730.88;5082605;28;20020;-67
2022/09/26 11:56:46;;;;;;;9.95;4.07;;;;;;;12.02;90.59;99725.75;5086313;28;20033;-68
2022/09/26 11:59:31;;;;;;;12.43;4.45;;;;;;;11.93;88.62;99710.63;5072843;28;20017;-67
2022/09/26 12:02:14;;;;;;;10.88;4.13;;;;;;;11.98;90.91;99718.19;5070854;28;20039;-68
2022/09/26 12:04:54;;;;;;;14.68;4.38;;;;;;;11.99;91.85;99707.16;5055844;28;20021;-68
2022/09/26 12:07:32;;;;;;;9.57;4.15;;;;;;;11.90;92.05;99711.03;5065209;28;20024;-67
2022/09/26 12:10:13;;;;;;;11.25;4.75;;;;;;;11.96;93.23;99702.13;5067338;28;20033;-68